sensor_id;sensor_type;location;lat;lon;timestamp;pressure;altitude;pressure_sealevel;temperature;humidity
6433;BME280;3249;42.690;23.260;2023-05-19T00:01:33;94476.06;;;11.45;100.00
6433;BME280;3249;42.690;23.260;2023-05-19T00:04:07;94481.34;;;11.50;100.00
6433;BME280;3249;42.690;23.260;2023-05-19T00:06:38;94477.47;;;11.59;100.00
6433;BME280;3249;42.690;23.260;2023-05-19T00:09:08;94485.59;;;11.62;100.00
6433;BME280;3249;42.690;23.260;2023-05-19T00:11:38;94476.34;;;11.55;100.00
6433;BME280;3249;42.690;23.260;2023-05-19T00:14:09;94474.91;;;11.59;100.00
6433;BME280;3249;42.690;23.260;2023-05-19T00:16:39;94467.81;;;11.54;100.00
6433;BME280;3249;42.690;23.260;2023-05-19T00:19:10;94473.91;;;11.60;100.00
6433;BME280;3249;42.690;23.260;2023-05-19T00:21:41;94468.72;;;11.60;100.00
6433;BME280;3249;42.690;23.260;2023-05-19T00:24:10;94470.38;;;11.54;100.00
6433;BME280;3249;42.690;23.260;2023-05-19T00:26:39;94464.22;;;11.55;100.00
6433;BME280;3249;42.690;23.260;2023-05-19T00:29:08;94471.03;;;11.50;100.00
6433;BME280;3249;42.690;23.260;2023-05-19T00:31:38;94461.38;;;11.45;100.00
6433;BME280;3249;42.690;23.260;2023-05-19T00:34:11;94471.69;;;11.45;100.00
6433;BME280;3249;42.690;23.260;2023-05-19T00:36:40;94468.94;;;11.40;100.00
6433;BME280;3249;42.690;23.260;2023-05-19T00:39:13;94464.59;;;11.41;100.00
6433;BME280;3249;42.690;23.260;2023-05-19T00:41:42;94464.16;;;11.44;100.00
6433;BME280;3249;42.690;23.260;2023-05-19T00:44:11;94463.16;;;11.45;100.00
6433;BME280;3249;42.690;23.260;2023-05-19T00:46:40;94452.81;;;11.33;100.00
6433;BME280;3249;42.690;23.260;2023-05-19T00:49:11;94447.47;;;11.28;100.00
6433;BME280;3249;42.690;23.260;2023-05-19T00:51:41;94458.47;;;11.24;100.00
6433;BME280;3249;42.690;23.260;2023-05-19T00:54:10;94418.72;;;10.95;100.00
6433;BME280;3249;42.690;23.260;2023-05-19T00:56:39;94447.56;;;11.04;100.00
6433;BME280;3249;42.690;23.260;2023-05-19T00:59:08;94451.38;;;11.01;100.00
6433;BME280;3249;42.690;23.260;2023-05-19T01:01:38;94447.66;;;10.97;100.00
6433;BME280;3249;42.690;23.260;2023-05-19T01:04:07;94454.38;;;10.98;100.00
6433;BME280;3249;42.690;23.260;2023-05-19T01:06:39;94452.59;;;10.99;100.00
6433;BME280;3249;42.690;23.260;2023-05-19T01:09:09;94458.38;;;10.94;100.00
6433;BME280;3249;42.690;23.260;2023-05-19T01:11:37;94455.22;;;10.92;100.00
6433;BME280;3249;42.690;23.260;2023-05-19T01:14:06;94456.25;;;10.67;100.00
6433;BME280;3249;42.690;23.260;2023-05-19T01:16:39;94440.94;;;10.54;100.00
6433;BME280;3249;42.690;23.260;2023-05-19T01:19:23;94450.53;;;10.83;100.00
6433;BME280;3249;42.690;23.260;2023-05-19T01:22:17;94459.00;;;10.90;100.00
6433;BME280;3249;42.690;23.260;2023-05-19T01:25:17;94458.25;;;10.65;100.00
6433;BME280;3249;42.690;23.260;2023-05-19T01:28:17;94455.81;;;10.70;100.00
6433;BME280;3249;42.690;23.260;2023-05-19T01:30:55;94450.19;;;10.79;100.00
6433;BME280;3249;42.690;23.260;2023-05-19T01:33:27;94454.53;;;10.79;100.00
6433;BME280;3249;42.690;23.260;2023-05-19T01:35:56;94428.38;;;10.64;100.00
6433;BME280;3249;42.690;23.260;2023-05-19T01:38:29;94446.47;;;10.51;100.00
6433;BME280;3249;42.690;23.260;2023-05-19T01:40:58;94455.94;;;10.57;100.00
6433;BME280;3249;42.690;23.260;2023-05-19T01:43:28;94455.63;;;10.47;100.00
6433;BME280;3249;42.690;23.260;2023-05-19T01:46:02;94461.22;;;10.44;100.00
6433;BME280;3249;42.690;23.260;2023-05-19T01:48:31;94448.53;;;10.18;100.00
6433;BME280;3249;42.690;23.260;2023-05-19T01:51:01;94462.31;;;10.30;100.00
6433;BME280;3249;42.690;23.260;2023-05-19T01:53:30;94455.19;;;10.32;100.00
6433;BME280;3249;42.690;23.260;2023-05-19T01:55:59;94452.81;;;10.30;100.00
6433;BME280;3249;42.690;23.260;2023-05-19T01:58:36;94460.13;;;10.33;100.00
6433;BME280;3249;42.690;23.260;2023-05-19T02:01:17;94463.56;;;10.21;100.00
6433;BME280;3249;42.690;23.260;2023-05-19T02:03:59;94465.03;;;10.10;100.00
6433;BME280;3249;42.690;23.260;2023-05-19T02:06:35;94459.16;;;9.97;100.00
6433;BME280;3249;42.690;23.260;2023-05-19T02:09:15;94454.66;;;9.86;100.00
6433;BME280;3249;42.690;23.260;2023-05-19T02:11:52;94444.25;;;9.74;100.00
6433;BME280;3249;42.690;23.260;2023-05-19T02:14:27;94460.22;;;9.83;100.00
6433;BME280;3249;42.690;23.260;2023-05-19T02:17:02;94462.41;;;9.79;100.00
6433;BME280;3249;42.690;23.260;2023-05-19T02:19:37;94462.41;;;9.79;100.00
6433;BME280;3249;42.690;23.260;2023-05-19T02:22:07;94470.94;;;9.80;100.00
6433;BME280;3249;42.690;23.260;2023-05-19T02:24:36;94465.19;;;9.78;100.00
6433;BME280;3249;42.690;23.260;2023-05-19T02:27:06;94471.91;;;9.79;100.00
6433;BME280;3249;42.690;23.260;2023-05-19T02:29:35;94472.91;;;9.78;100.00
6433;BME280;3249;42.690;23.260;2023-05-19T02:32:07;94466.38;;;9.75;100.00
6433;BME280;3249;42.690;23.260;2023-05-19T02:34:36;94464.22;;;9.72;100.00
6433;BME280;3249;42.690;23.260;2023-05-19T02:37:07;94462.03;;;9.76;100.00
6433;BME280;3249;42.690;23.260;2023-05-19T02:39:37;94464.44;;;9.71;100.00
6433;BME280;3249;42.690;23.260;2023-05-19T02:42:06;94462.06;;;9.69;100.00
6433;BME280;3249;42.690;23.260;2023-05-19T02:44:35;94463.44;;;9.72;100.00
6433;BME280;3249;42.690;23.260;2023-05-19T02:47:04;94461.84;;;9.71;100.00
6433;BME280;3249;42.690;23.260;2023-05-19T02:49:36;94473.91;;;9.77;100.00
6433;BME280;3249;42.690;23.260;2023-05-19T02:52:05;94478.19;;;9.83;100.00
6433;BME280;3249;42.690;23.260;2023-05-19T02:54:34;94477.78;;;9.86;100.00
6433;BME280;3249;42.690;23.260;2023-05-19T02:57:04;94462.38;;;9.86;100.00
6433;BME280;3249;42.690;23.260;2023-05-19T02:59:33;94444.88;;;9.70;100.00
6433;BME280;3249;42.690;23.260;2023-05-19T03:02:02;94446.28;;;9.66;100.00
6433;BME280;3249;42.690;23.260;2023-05-19T03:04:32;94481.53;;;9.90;100.00
6433;BME280;3249;42.690;23.260;2023-05-19T03:07:09;94481.69;;;9.95;100.00
6433;BME280;3249;42.690;23.260;2023-05-19T03:09:38;94481.53;;;9.90;100.00
6433;BME280;3249;42.690;23.260;2023-05-19T03:12:07;94487.69;;;9.89;100.00
6433;BME280;3249;42.690;23.260;2023-05-19T03:14:37;94488.25;;;9.91;100.00
6433;BME280;3249;42.690;23.260;2023-05-19T03:17:06;94489.84;;;9.92;100.00
6433;BME280;3249;42.690;23.260;2023-05-19T03:19:35;94489.25;;;9.90;100.00
6433;BME280;3249;42.690;23.260;2023-05-19T03:22:04;94483.69;;;9.93;100.00
6433;BME280;3249;42.690;23.260;2023-05-19T03:24:36;94488.59;;;10.01;100.00
6433;BME280;3249;42.690;23.260;2023-05-19T03:27:06;94486.81;;;10.08;100.00
6433;BME280;3249;42.690;23.260;2023-05-19T03:29:36;94483.94;;;10.22;100.00
6433;BME280;3249;42.690;23.260;2023-05-19T03:32:06;94485.59;;;10.41;100.00
6433;BME280;3249;42.690;23.260;2023-05-19T03:34:35;94487.59;;;10.64;100.00
6433;BME280;3249;42.690;23.260;2023-05-19T03:37:04;94486.59;;;10.83;100.00
6433;BME280;3249;42.690;23.260;2023-05-19T03:39:38;94478.19;;;10.94;100.00
6433;BME280;3249;42.690;23.260;2023-05-19T03:42:07;94489.00;;;11.20;100.00
6433;BME280;3249;42.690;23.260;2023-05-19T03:44:37;94490.94;;;11.25;100.00
6433;BME280;3249;42.690;23.260;2023-05-19T03:47:06;94490.94;;;11.25;100.00
6433;BME280;3249;42.690;23.260;2023-05-19T03:49:41;94488.31;;;11.13;100.00
6433;BME280;3249;42.690;23.260;2023-05-19T03:52:33;94491.94;;;11.06;100.00
6433;BME280;3249;42.690;23.260;2023-05-19T03:55:20;94488.41;;;11.00;100.00
6433;BME280;3249;42.690;23.260;2023-05-19T03:57:50;94487.66;;;11.00;100.00
6433;BME280;3249;42.690;23.260;2023-05-19T04:00:20;94497.88;;;11.24;100.00
6433;BME280;3249;42.690;23.260;2023-05-19T04:02:50;94490.25;;;11.36;100.00
6433;BME280;3249;42.690;23.260;2023-05-19T04:05:19;94509.09;;;11.72;100.00
6433;BME280;3249;42.690;23.260;2023-05-19T04:07:48;94507.69;;;11.88;100.00
6433;BME280;3249;42.690;23.260;2023-05-19T04:10:20;94514.59;;;12.05;100.00
6433;BME280;3249;42.690;23.260;2023-05-19T04:12:49;94515.13;;;11.96;100.00
6433;BME280;3249;42.690;23.260;2023-05-19T04:15:18;94511.53;;;11.97;100.00
6433;BME280;3249;42.690;23.260;2023-05-19T04:17:47;94504.47;;;11.92;100.00
6433;BME280;3249;42.690;23.260;2023-05-19T04:20:17;94509.25;;;11.89;100.00
6433;BME280;3249;42.690;23.260;2023-05-19T04:22:46;94509.25;;;11.89;100.00
6433;BME280;3249;42.690;23.260;2023-05-19T04:25:15;94507.94;;;11.98;100.00
6433;BME280;3249;42.690;23.260;2023-05-19T04:27:47;94511.34;;;12.10;100.00
6433;BME280;3249;42.690;23.260;2023-05-19T04:30:17;94517.91;;;12.24;100.00
6433;BME280;3249;42.690;23.260;2023-05-19T04:32:47;94527.94;;;12.43;100.00
6433;BME280;3249;42.690;23.260;2023-05-19T04:35:17;94517.66;;;12.55;100.00
6433;BME280;3249;42.690;23.260;2023-05-19T04:37:48;94528.53;;;12.45;100.00
6433;BME280;3249;42.690;23.260;2023-05-19T04:40:22;94528.75;;;12.44;100.00
6433;BME280;3249;42.690;23.260;2023-05-19T04:42:54;94525.25;;;12.38;100.00
6433;BME280;3249;42.690;23.260;2023-05-19T04:45:24;94517.81;;;12.01;100.00
6433;BME280;3249;42.690;23.260;2023-05-19T04:47:57;94523.41;;;11.98;100.00
6433;BME280;3249;42.690;23.260;2023-05-19T04:50:26;94521.75;;;12.03;100.00
6433;BME280;3249;42.690;23.260;2023-05-19T04:52:57;94517.88;;;12.12;100.00
6433;BME280;3249;42.690;23.260;2023-05-19T04:55:26;94521.50;;;12.23;100.00
6433;BME280;3249;42.690;23.260;2023-05-19T04:57:59;94529.28;;;12.34;100.00
6433;BME280;3249;42.690;23.260;2023-05-19T05:00:29;94531.53;;;12.42;100.00
6433;BME280;3249;42.690;23.260;2023-05-19T05:03:03;94532.13;;;12.56;100.00
6433;BME280;3249;42.690;23.260;2023-05-19T05:05:33;94528.81;;;12.67;100.00
6433;BME280;3249;42.690;23.260;2023-05-19T05:08:03;94531.16;;;12.80;100.00
6433;BME280;3249;42.690;23.260;2023-05-19T05:10:37;94537.72;;;12.94;100.00
6433;BME280;3249;42.690;23.260;2023-05-19T05:13:09;94534.78;;;12.90;100.00
6433;BME280;3249;42.690;23.260;2023-05-19T05:15:39;94525.31;;;12.73;100.00
6433;BME280;3249;42.690;23.260;2023-05-19T05:18:10;94537.25;;;12.85;100.00
6433;BME280;3249;42.690;23.260;2023-05-19T05:20:41;94539.81;;;12.97;100.00
6433;BME280;3249;42.690;23.260;2023-05-19T05:23:12;94525.09;;;12.74;100.00
6433;BME280;3249;42.690;23.260;2023-05-19T05:25:45;94526.69;;;12.87;100.00
6433;BME280;3249;42.690;23.260;2023-05-19T05:28:18;94532.06;;;12.97;100.00
6433;BME280;3249;42.690;23.260;2023-05-19T05:30:47;94536.06;;;13.11;100.00
6433;BME280;3249;42.690;23.260;2023-05-19T05:33:17;94534.81;;;13.25;100.00
6433;BME280;3249;42.690;23.260;2023-05-19T05:35:47;94540.31;;;13.40;100.00
6433;BME280;3249;42.690;23.260;2023-05-19T05:38:16;94541.88;;;13.41;100.00
6433;BME280;3249;42.690;23.260;2023-05-19T05:40:45;94540.31;;;13.40;100.00
6433;BME280;3249;42.690;23.260;2023-05-19T05:43:14;94537.28;;;13.43;100.00
6433;BME280;3249;42.690;23.260;2023-05-19T05:45:52;94535.59;;;13.48;100.00
6433;BME280;3249;42.690;23.260;2023-05-19T05:48:22;94546.06;;;13.42;100.00
6433;BME280;3249;42.690;23.260;2023-05-19T05:50:52;94546.06;;;13.42;100.00
6433;BME280;3249;42.690;23.260;2023-05-19T05:53:29;94544.00;;;13.44;100.00
6433;BME280;3249;42.690;23.260;2023-05-19T05:56:00;94547.41;;;13.44;100.00
6433;BME280;3249;42.690;23.260;2023-05-19T05:58:38;94551.56;;;13.34;100.00
6433;BME280;3249;42.690;23.260;2023-05-19T06:01:10;94553.69;;;13.25;100.00
6433;BME280;3249;42.690;23.260;2023-05-19T06:03:42;94555.59;;;13.41;100.00
6433;BME280;3249;42.690;23.260;2023-05-19T06:06:16;94565.41;;;13.39;100.00
6433;BME280;3249;42.690;23.260;2023-05-19T06:08:46;94566.94;;;13.63;100.00
6433;BME280;3249;42.690;23.260;2023-05-19T06:11:14;94569.25;;;13.88;100.00
6433;BME280;3249;42.690;23.260;2023-05-19T06:13:44;94566.66;;;14.00;100.00
6433;BME280;3249;42.690;23.260;2023-05-19T06:16:25;94554.53;;;13.88;100.00
6433;BME280;3249;42.690;23.260;2023-05-19T06:18:54;94560.25;;;14.30;100.00
6433;BME280;3249;42.690;23.260;2023-05-19T06:21:25;94558.41;;;14.42;100.00
6433;BME280;3249;42.690;23.260;2023-05-19T06:23:53;94573.00;;;14.76;100.00
6433;BME280;3249;42.690;23.260;2023-05-19T06:26:22;94566.34;;;14.24;100.00
6433;BME280;3249;42.690;23.260;2023-05-19T06:28:51;94574.16;;;14.69;100.00
6433;BME280;3249;42.690;23.260;2023-05-19T06:31:20;94569.63;;;14.20;100.00
6433;BME280;3249;42.690;23.260;2023-05-19T06:33:57;94574.22;;;14.74;100.00
6433;BME280;3249;42.690;23.260;2023-05-19T06:36:26;94553.44;;;14.13;100.00
6433;BME280;3249;42.690;23.260;2023-05-19T06:38:56;94564.25;;;14.21;100.00
6433;BME280;3249;42.690;23.260;2023-05-19T06:41:26;94556.25;;;14.23;100.00
6433;BME280;3249;42.690;23.260;2023-05-19T06:43:55;94564.75;;;14.35;100.00
6433;BME280;3249;42.690;23.260;2023-05-19T06:46:23;94563.13;;;14.45;100.00
6433;BME280;3249;42.690;23.260;2023-05-19T06:48:53;94561.06;;;14.31;100.00
6433;BME280;3249;42.690;23.260;2023-05-19T06:51:26;94572.28;;;14.36;100.00
6433;BME280;3249;42.690;23.260;2023-05-19T06:53:56;94577.44;;;14.64;100.00
6433;BME280;3249;42.690;23.260;2023-05-19T06:56:25;94575.94;;;14.52;100.00
6433;BME280;3249;42.690;23.260;2023-05-19T06:58:55;94579.41;;;14.57;100.00
6433;BME280;3249;42.690;23.260;2023-05-19T07:01:30;94586.66;;;14.72;100.00
6433;BME280;3249;42.690;23.260;2023-05-19T07:03:59;94572.69;;;15.06;100.00
6433;BME280;3249;42.690;23.260;2023-05-19T07:06:31;94583.69;;;15.13;100.00
6433;BME280;3249;42.690;23.260;2023-05-19T07:09:00;94579.94;;;15.04;100.00
6433;BME280;3249;42.690;23.260;2023-05-19T07:11:31;94579.28;;;15.46;100.00
6433;BME280;3249;42.690;23.260;2023-05-19T07:14:00;94589.84;;;15.56;100.00
6433;BME280;3249;42.690;23.260;2023-05-19T07:16:30;94603.72;;;15.67;100.00
6433;BME280;3249;42.690;23.260;2023-05-19T07:18:59;94595.34;;;15.43;100.00
6433;BME280;3249;42.690;23.260;2023-05-19T07:21:31;94599.03;;;15.47;100.00
6433;BME280;3249;42.690;23.260;2023-05-19T07:24:00;94600.22;;;15.40;100.00
6433;BME280;3249;42.690;23.260;2023-05-19T07:26:30;94601.50;;;15.75;100.00
6433;BME280;3249;42.690;23.260;2023-05-19T07:28:58;94601.78;;;15.57;100.00
6433;BME280;3249;42.690;23.260;2023-05-19T07:31:27;94600.41;;;15.71;100.00
6433;BME280;3249;42.690;23.260;2023-05-19T07:33:56;94594.22;;;15.56;100.00
6433;BME280;3249;42.690;23.260;2023-05-19T07:36:25;94607.09;;;15.67;100.00
6433;BME280;3249;42.690;23.260;2023-05-19T07:38:57;94597.22;;;15.64;100.00
6433;BME280;3249;42.690;23.260;2023-05-19T07:41:26;94605.81;;;16.08;100.00
6433;BME280;3249;42.690;23.260;2023-05-19T07:43:55;94595.13;;;16.26;100.00
6433;BME280;3249;42.690;23.260;2023-05-19T07:46:24;94606.84;;;16.28;100.00
6433;BME280;3249;42.690;23.260;2023-05-19T07:48:53;94594.94;;;16.32;100.00
6433;BME280;3249;42.690;23.260;2023-05-19T07:51:22;94599.00;;;16.45;100.00
6433;BME280;3249;42.690;23.260;2023-05-19T07:53:51;94601.16;;;16.53;100.00
6433;BME280;3249;42.690;23.260;2023-05-19T07:56:23;94602.97;;;16.31;100.00
6433;BME280;3249;42.690;23.260;2023-05-19T07:58:52;94596.66;;;16.43;100.00
6433;BME280;3249;42.690;23.260;2023-05-19T08:01:21;94597.56;;;16.54;100.00
6433;BME280;3249;42.690;23.260;2023-05-19T08:03:50;94595.38;;;16.46;100.00
6433;BME280;3249;42.690;23.260;2023-05-19T08:06:20;94598.66;;;16.89;100.00
6433;BME280;3249;42.690;23.260;2023-05-19T08:08:50;94606.22;;;17.22;100.00
6433;BME280;3249;42.690;23.260;2023-05-19T08:11:19;94606.44;;;17.42;100.00
6433;BME280;3249;42.690;23.260;2023-05-19T08:13:51;94606.97;;;17.49;100.00
6433;BME280;3249;42.690;23.260;2023-05-19T08:16:20;94600.72;;;17.45;100.00
6433;BME280;3249;42.690;23.260;2023-05-19T08:18:49;94599.63;;;17.41;100.00
6433;BME280;3249;42.690;23.260;2023-05-19T08:21:18;94601.03;;;17.22;100.00
6433;BME280;3249;42.690;23.260;2023-05-19T08:23:47;94599.78;;;17.30;100.00
6433;BME280;3249;42.690;23.260;2023-05-19T08:26:16;94600.63;;;17.35;100.00
6433;BME280;3249;42.690;23.260;2023-05-19T08:28:46;94596.03;;;17.42;100.00
6433;BME280;3249;42.690;23.260;2023-05-19T08:31:17;94594.84;;;17.28;100.00
6433;BME280;3249;42.690;23.260;2023-05-19T08:33:47;94589.13;;;17.68;100.00
6433;BME280;3249;42.690;23.260;2023-05-19T08:36:16;94590.53;;;17.80;100.00
6433;BME280;3249;42.690;23.260;2023-05-19T08:38:46;94588.38;;;17.72;100.00
6433;BME280;3249;42.690;23.260;2023-05-19T08:41:16;94592.59;;;17.78;100.00
6433;BME280;3249;42.690;23.260;2023-05-19T08:43:44;94596.53;;;17.86;98.14
6433;BME280;3249;42.690;23.260;2023-05-19T08:46:17;94593.34;;;17.37;97.86
6433;BME280;3249;42.690;23.260;2023-05-19T08:48:52;94589.94;;;17.73;100.00
6433;BME280;3249;42.690;23.260;2023-05-19T08:51:26;94586.75;;;18.08;95.41
6433;BME280;3249;42.690;23.260;2023-05-19T08:54:13;94600.44;;;17.83;95.84
6433;BME280;3249;42.690;23.260;2023-05-19T08:56:43;94592.41;;;17.95;96.96
6433;BME280;3249;42.690;23.260;2023-05-19T08:59:13;94596.97;;;18.20;91.68
6433;BME280;3249;42.690;23.260;2023-05-19T09:01:46;94596.22;;;18.29;94.15
6433;BME280;3249;42.690;23.260;2023-05-19T09:04:16;94585.31;;;17.80;93.96
6433;BME280;3249;42.690;23.260;2023-05-19T09:06:45;94585.16;;;18.02;96.95
6433;BME280;3249;42.690;23.260;2023-05-19T09:09:15;94587.03;;;18.17;92.52
6433;BME280;3249;42.690;23.260;2023-05-19T09:11:45;94585.91;;;17.97;94.67
6433;BME280;3249;42.690;23.260;2023-05-19T09:14:14;94571.69;;;18.20;95.45
6433;BME280;3249;42.690;23.260;2023-05-19T09:16:47;94577.72;;;18.31;93.30
6433;BME280;3249;42.690;23.260;2023-05-19T09:19:18;94576.22;;;18.40;88.66
6433;BME280;3249;42.690;23.260;2023-05-19T09:21:57;94581.00;;;18.06;91.96
6433;BME280;3249;42.690;23.260;2023-05-19T09:24:28;94573.03;;;18.28;91.44
6433;BME280;3249;42.690;23.260;2023-05-19T09:26:57;94566.34;;;18.57;90.94
6433;BME280;3249;42.690;23.260;2023-05-19T09:29:27;94570.03;;;18.66;87.58
6433;BME280;3249;42.690;23.260;2023-05-19T09:31:58;94578.91;;;18.85;84.94
6433;BME280;3249;42.690;23.260;2023-05-19T09:34:30;94576.22;;;18.50;85.41
6433;BME280;3249;42.690;23.260;2023-05-19T09:36:58;94571.09;;;18.80;86.23
6433;BME280;3249;42.690;23.260;2023-05-19T09:39:29;94581.81;;;19.08;81.71
6433;BME280;3249;42.690;23.260;2023-05-19T09:41:57;94584.16;;;19.15;78.41
6433;BME280;3249;42.690;23.260;2023-05-19T09:44:27;94554.16;;;18.92;78.48
6433;BME280;3249;42.690;23.260;2023-05-19T09:46:58;94565.03;;;18.59;84.69
6433;BME280;3249;42.690;23.260;2023-05-19T09:49:29;94575.97;;;18.36;86.96
6433;BME280;3249;42.690;23.260;2023-05-19T09:51:59;94569.94;;;18.41;90.02
6433;BME280;3249;42.690;23.260;2023-05-19T09:54:33;94573.16;;;18.73;86.93
6433;BME280;3249;42.690;23.260;2023-05-19T09:57:03;94574.75;;;18.74;87.66
6433;BME280;3249;42.690;23.260;2023-05-19T09:59:32;94575.28;;;19.16;82.62
6433;BME280;3249;42.690;23.260;2023-05-19T10:02:09;94569.03;;;19.02;81.03
6433;BME280;3249;42.690;23.260;2023-05-19T10:04:42;94569.03;;;19.32;79.35
6433;BME280;3249;42.690;23.260;2023-05-19T10:07:12;94567.94;;;19.78;77.88
6433;BME280;3249;42.690;23.260;2023-05-19T10:09:42;94554.06;;;19.82;69.21
6433;BME280;3249;42.690;23.260;2023-05-19T10:12:12;94572.50;;;20.26;71.33
6433;BME280;3249;42.690;23.260;2023-05-19T10:14:41;94569.16;;;20.15;66.29
6433;BME280;3249;42.690;23.260;2023-05-19T10:17:13;94543.84;;;20.01;68.12
6433;BME280;3249;42.690;23.260;2023-05-19T10:19:42;94564.16;;;20.19;67.82
6433;BME280;3249;42.690;23.260;2023-05-19T10:22:12;94565.19;;;20.23;69.33
6433;BME280;3249;42.690;23.260;2023-05-19T10:24:41;94561.75;;;20.32;66.33
6433;BME280;3249;42.690;23.260;2023-05-19T10:27:12;94553.56;;;20.44;69.23
6433;BME280;3249;42.690;23.260;2023-05-19T10:29:46;94558.81;;;20.49;60.27
6433;BME280;3249;42.690;23.260;2023-05-19T10:32:23;94548.41;;;20.34;56.40
6433;BME280;3249;42.690;23.260;2023-05-19T10:35:24;94561.19;;;20.40;59.93
6433;BME280;3249;42.690;23.260;2023-05-19T10:38:03;94563.16;;;20.10;56.82
6433;BME280;3249;42.690;23.260;2023-05-19T10:40:49;94554.22;;;20.21;56.43
6433;BME280;3249;42.690;23.260;2023-05-19T10:43:27;94561.03;;;20.70;53.72
6433;BME280;3249;42.690;23.260;2023-05-19T10:45:59;94556.31;;;21.11;56.96
6433;BME280;3249;42.690;23.260;2023-05-19T10:48:32;94536.72;;;21.37;53.68
6433;BME280;3249;42.690;23.260;2023-05-19T10:51:02;94548.97;;;21.41;50.77
6433;BME280;3249;42.690;23.260;2023-05-19T10:53:32;94555.44;;;21.82;50.92
6433;BME280;3249;42.690;23.260;2023-05-19T10:56:02;94539.72;;;21.82;53.10
6433;BME280;3249;42.690;23.260;2023-05-19T10:58:36;94548.97;;;21.98;51.22
6433;BME280;3249;42.690;23.260;2023-05-19T11:01:07;94521.09;;;21.84;49.67
6433;BME280;3249;42.690;23.260;2023-05-19T11:03:50;94544.69;;;21.84;49.10
6433;BME280;3249;42.690;23.260;2023-05-19T11:06:24;94549.69;;;20.85;50.64
6433;BME280;3249;42.690;23.260;2023-05-19T11:08:56;94540.19;;;20.99;50.22
6433;BME280;3249;42.690;23.260;2023-05-19T11:11:26;94543.34;;;20.96;53.65
6433;BME280;3249;42.690;23.260;2023-05-19T11:13:55;94539.84;;;21.10;47.52
6433;BME280;3249;42.690;23.260;2023-05-19T11:16:28;94540.97;;;21.33;47.53
6433;BME280;3249;42.690;23.260;2023-05-19T11:19:02;94543.19;;;21.44;47.35
6433;BME280;3249;42.690;23.260;2023-05-19T11:21:46;94542.63;;;21.24;47.69
6433;BME280;3249;42.690;23.260;2023-05-19T11:24:32;94539.81;;;21.44;47.47
6433;BME280;3249;42.690;23.260;2023-05-19T11:27:18;94542.25;;;21.59;43.54
6433;BME280;3249;42.690;23.260;2023-05-19T11:29:48;94549.66;;;21.85;41.48
6433;BME280;3249;42.690;23.260;2023-05-19T11:32:18;94541.84;;;21.47;42.14
6433;BME280;3249;42.690;23.260;2023-05-19T11:34:50;94542.13;;;21.45;41.12
6433;BME280;3249;42.690;23.260;2023-05-19T11:37:21;94527.75;;;20.76;44.99
6433;BME280;3249;42.690;23.260;2023-05-19T11:39:51;94525.69;;;20.68;46.32
6433;BME280;3249;42.690;23.260;2023-05-19T11:42:20;94527.38;;;20.54;44.07
6433;BME280;3249;42.690;23.260;2023-05-19T11:44:49;94535.56;;;20.37;43.66
6433;BME280;3249;42.690;23.260;2023-05-19T11:47:22;94526.84;;;20.52;48.66
6433;BME280;3249;42.690;23.260;2023-05-19T11:49:54;94517.41;;;20.61;49.77
6433;BME280;3249;42.690;23.260;2023-05-19T11:52:24;94533.25;;;20.31;50.23
6433;BME280;3249;42.690;23.260;2023-05-19T11:54:54;94536.31;;;19.74;54.08
6433;BME280;3249;42.690;23.260;2023-05-19T11:57:23;94533.47;;;19.71;55.19
6433;BME280;3249;42.690;23.260;2023-05-19T11:59:52;94536.91;;;19.51;56.46
6433;BME280;3249;42.690;23.260;2023-05-19T12:02:22;94538.50;;;19.47;57.86
6433;BME280;3249;42.690;23.260;2023-05-19T12:04:54;94537.63;;;19.77;62.72
6433;BME280;3249;42.690;23.260;2023-05-19T12:07:24;94541.81;;;19.78;66.33
6433;BME280;3249;42.690;23.260;2023-05-19T12:09:53;94542.91;;;19.62;67.89
6433;BME280;3249;42.690;23.260;2023-05-19T12:12:22;94539.78;;;19.15;78.24
6433;BME280;3249;42.690;23.260;2023-05-19T12:14:52;94553.34;;;18.92;80.08
6433;BME280;3249;42.690;23.260;2023-05-19T12:17:21;94559.84;;;18.69;83.80
6433;BME280;3249;42.690;23.260;2023-05-19T12:19:50;94561.88;;;18.47;86.17
6433;BME280;3249;42.690;23.260;2023-05-19T12:22:23;94587.16;;;18.42;89.56
6433;BME280;3249;42.690;23.260;2023-05-19T12:24:52;94585.97;;;18.13;100.00
6433;BME280;3249;42.690;23.260;2023-05-19T12:27:23;94583.19;;;17.72;100.00
6433;BME280;3249;42.690;23.260;2023-05-19T12:29:53;94577.38;;;17.60;100.00
6433;BME280;3249;42.690;23.260;2023-05-19T12:32:23;94583.84;;;17.53;100.00
6433;BME280;3249;42.690;23.260;2023-05-19T12:34:54;94578.88;;;17.46;100.00
6433;BME280;3249;42.690;23.260;2023-05-19T12:37:27;94568.19;;;17.11;100.00
6433;BME280;3249;42.690;23.260;2023-05-19T12:39:58;94554.00;;;16.97;100.00
6433;BME280;3249;42.690;23.260;2023-05-19T12:42:29;94557.25;;;17.14;100.00
6433;BME280;3249;42.690;23.260;2023-05-19T12:45:02;94550.59;;;17.28;100.00
6433;BME280;3249;42.690;23.260;2023-05-19T12:47:34;94549.56;;;17.29;100.00
6433;BME280;3249;42.690;23.260;2023-05-19T12:50:05;94542.88;;;17.38;100.00
6433;BME280;3249;42.690;23.260;2023-05-19T12:52:44;94543.56;;;17.65;99.94
6433;BME280;3249;42.690;23.260;2023-05-19T12:55:14;94541.66;;;18.02;95.38
6433;BME280;3249;42.690;23.260;2023-05-19T12:57:48;94526.06;;;18.13;87.84
6433;BME280;3249;42.690;23.260;2023-05-19T13:00:20;94526.09;;;18.23;85.28
6433;BME280;3249;42.690;23.260;2023-05-19T13:02:58;94532.41;;;18.42;83.64
6433;BME280;3249;42.690;23.260;2023-05-19T13:05:30;94525.16;;;18.59;81.98
6433;BME280;3249;42.690;23.260;2023-05-19T13:08:04;94531.94;;;18.85;75.05
6433;BME280;3249;42.690;23.260;2023-05-19T13:10:34;94539.28;;;18.98;68.08
6433;BME280;3249;42.690;23.260;2023-05-19T13:13:05;94530.63;;;19.22;68.08
6433;BME280;3249;42.690;23.260;2023-05-19T13:15:37;94535.09;;;19.37;67.46
6433;BME280;3249;42.690;23.260;2023-05-19T13:18:08;94516.84;;;19.27;68.92
6433;BME280;3249;42.690;23.260;2023-05-19T13:20:38;94536.09;;;19.66;63.34
6433;BME280;3249;42.690;23.260;2023-05-19T13:23:12;94532.41;;;19.82;63.92
6433;BME280;3249;42.690;23.260;2023-05-19T13:25:42;94533.91;;;19.98;61.09
6433;BME280;3249;42.690;23.260;2023-05-19T13:28:10;94541.97;;;20.01;60.32